Branchport, New York
Current Conditions -  °F | °C
As of 7:53 PM on Saturday 25 Oct 2014 (Local Time) from KPEO Reporting Station
Scattered Clouds Scattered Clouds  
Wind Chill: 59°   Ceiling: Unl
Heat Index: 59°   Visibility: 10mi
Dew Point: 46°   Wind: 12mph
Humidity: 62%   Direction: 260°W
Pressure: 29.62"   Gusts: 24mph
Location:  42.6°N, 77.15°W
Report Text: KPEO 252353Z AUTO 26010G21KT 10SM SCT039 SCT046 SCT055 15/08 A2962 RMK AO2 SLP031 T01500078 10200 20150 53014
Loading
Personal Weather Stations






























Interactive Weather Map
Tropical Storm Tracking
New forecast layout! Learn more

10-Day Weather Forecast

Advertisements
Track Severe Weather on mobile